createdAt,value
2022-12-05T00:00:14.687Z,21.23
2022-12-05T00:02:45.559Z,21.10
2022-12-05T00:05:16.559Z,18.83
2022-12-05T00:07:48.007Z,16.10
2022-12-05T00:10:19.052Z,20.90
2022-12-05T00:12:49.963Z,20.70
2022-12-05T00:15:20.868Z,22.80
2022-12-05T00:17:51.750Z,20.33
2022-12-05T00:20:22.643Z,20.00
2022-12-05T00:22:53.542Z,16.67
2022-12-05T00:25:24.464Z,16.47
2022-12-05T00:27:55.411Z,21.37
2022-12-05T00:30:26.281Z,19.17
2022-12-05T00:32:58.162Z,17.80
2022-12-05T00:35:33.474Z,21.70
2022-12-05T00:38:04.465Z,18.17
2022-12-05T00:40:36.955Z,22.53
2022-12-05T00:43:07.832Z,22.50
2022-12-05T00:45:38.928Z,19.17
2022-12-05T00:48:09.801Z,21.80
2022-12-05T00:50:40.676Z,20.70
2022-12-05T00:53:11.576Z,22.07
2022-12-05T00:55:42.444Z,19.07
2022-12-05T00:58:13.310Z,20.83
2022-12-05T01:00:44.294Z,16.13
2022-12-05T01:03:15.228Z,19.83
2022-12-05T01:05:46.295Z,15.37
2022-12-05T01:08:17.211Z,22.00
2022-12-05T01:10:56.075Z,16.80
2022-12-05T01:13:28.276Z,18.20
2022-12-05T01:15:59.257Z,22.20
2022-12-05T01:18:33.133Z,14.63
2022-12-05T01:21:06.183Z,19.30
2022-12-05T01:23:38.192Z,16.40
2022-12-05T01:26:13.477Z,14.90
2022-12-05T01:28:45.023Z,19.70
2022-12-05T01:31:25.666Z,18.67
2022-12-05T01:33:59.143Z,15.10
2022-12-05T01:36:30.535Z,20.30
2022-12-05T01:39:01.616Z,17.23
2022-12-05T01:41:36.143Z,14.00
2022-12-05T01:44:12.989Z,15.50
2022-12-05T01:46:50.321Z,12.73
2022-12-05T01:49:23.078Z,15.20
2022-12-05T01:51:58.462Z,18.40
2022-12-05T01:54:30.060Z,15.87
2022-12-05T01:57:04.788Z,16.03
2022-12-05T01:59:41.525Z,16.43
2022-12-05T02:02:13.466Z,12.37
2022-12-05T02:05:06.062Z,18.67
2022-12-05T02:07:40.047Z,16.03
2022-12-05T02:10:11.753Z,19.43
2022-12-05T02:12:44.360Z,13.10
2022-12-05T02:15:51.082Z,16.57
2022-12-05T02:19:10.252Z,16.47
2022-12-05T02:22:13.052Z,17.03
2022-12-05T02:25:11.497Z,11.60
2022-12-05T02:27:50.965Z,13.30
2022-12-05T02:30:27.072Z,12.83
2022-12-05T02:33:07.555Z,12.83
2022-12-05T02:35:50.584Z,14.73
2022-12-05T02:38:40.275Z,13.47
2022-12-05T02:41:35.741Z,14.00
2022-12-05T02:44:16.945Z,11.30
2022-12-05T02:46:52.273Z,11.10
2022-12-05T02:49:30.699Z,11.67
2022-12-05T02:52:07.710Z,11.87
2022-12-05T02:54:42.549Z,9.40
2022-12-05T02:57:15.244Z,13.67
2022-12-05T02:59:46.123Z,13.50
2022-12-05T03:02:33.837Z,15.00
2022-12-05T03:05:40.118Z,13.50
2022-12-05T03:08:19.066Z,16.67
2022-12-05T03:10:53.211Z,16.53
2022-12-05T03:13:56.183Z,14.60
2022-12-05T03:16:47.710Z,16.60
2022-12-05T03:19:32.943Z,19.13
2022-12-05T03:22:35.473Z,15.90
2022-12-05T03:25:07.568Z,15.90
2022-12-05T03:27:53.952Z,13.33
2022-12-05T03:30:25.039Z,11.20
2022-12-05T03:33:18.609Z,16.97
2022-12-05T03:35:58.749Z,15.33
2022-12-05T03:38:46.152Z,15.07
2022-12-05T03:41:49.140Z,15.07
2022-12-05T03:44:29.748Z,12.47
2022-12-05T03:47:41.517Z,12.80
2022-12-05T03:50:35.234Z,13.67
2022-12-05T03:53:21.558Z,19.63
2022-12-05T03:56:07.802Z,18.50
2022-12-05T03:58:51.606Z,16.83
2022-12-05T04:01:27.085Z,13.87
2022-12-05T04:04:21.459Z,18.30
2022-12-05T04:06:56.331Z,17.27
2022-12-05T04:09:48.382Z,15.90
2022-12-05T04:12:27.621Z,14.90
2022-12-05T04:15:05.676Z,14.63
2022-12-05T04:17:59.714Z,20.67
2022-12-05T04:21:00.689Z,16.80
2022-12-05T04:23:33.255Z,21.20
2022-12-05T04:26:34.826Z,20.90
2022-12-05T04:29:19.105Z,17.00
2022-12-05T04:31:57.916Z,19.80
2022-12-05T04:34:30.389Z,19.33
2022-12-05T04:37:09.828Z,13.90
2022-12-05T04:39:50.518Z,15.53
2022-12-05T04:42:26.619Z,18.53
2022-12-05T04:45:06.663Z,14.13
2022-12-05T04:47:46.904Z,15.33
2022-12-05T04:50:18.952Z,21.17
2022-12-05T04:52:53.859Z,21.10
2022-12-05T04:55:28.114Z,16.70
2022-12-05T04:58:23.253Z,19.83
2022-12-05T05:01:25.739Z,14.27
2022-12-05T05:04:41.443Z,17.63
2022-12-05T05:07:14.183Z,16.10
2022-12-05T05:09:48.446Z,18.20
2022-12-05T05:12:19.527Z,15.23
2022-12-05T05:14:50.476Z,15.40
2022-12-05T05:17:22.470Z,18.00
2022-12-05T05:20:16.894Z,17.70
2022-12-05T05:22:52.110Z,13.83
2022-12-05T05:25:24.991Z,16.47
2022-12-05T05:27:56.893Z,14.47
2022-12-05T05:30:29.085Z,17.80
2022-12-05T05:33:00.824Z,17.10
2022-12-05T05:35:31.817Z,16.40
2022-12-05T05:38:02.925Z,22.93
2022-12-05T05:40:37.263Z,15.47
2022-12-05T05:43:08.149Z,20.37
2022-12-05T05:45:39.055Z,18.70
2022-12-05T05:48:09.941Z,18.90
2022-12-05T05:50:40.819Z,14.63
2022-12-05T05:53:11.752Z,19.37
2022-12-05T05:55:43.824Z,19.10
2022-12-05T05:58:14.751Z,23.57
2022-12-05T06:00:46.779Z,18.47
2022-12-05T06:03:17.787Z,18.13
2022-12-05T06:06:01.317Z,15.20
2022-12-05T06:08:34.622Z,15.63
2022-12-05T06:11:11.658Z,16.20
2022-12-05T06:13:42.561Z,16.10
2022-12-05T06:16:16.574Z,21.40
2022-12-05T06:18:48.667Z,22.80
2022-12-05T06:21:21.104Z,18.30
2022-12-05T06:23:52.914Z,18.17
2022-12-05T06:26:42.425Z,16.23
2022-12-05T06:29:13.322Z,14.87
2022-12-05T06:31:44.235Z,16.20
2022-12-05T06:34:15.342Z,19.50
2022-12-05T06:36:46.219Z,14.43
2022-12-05T06:39:17.181Z,18.63
2022-12-05T06:41:48.092Z,20.90
2022-12-05T06:44:19.145Z,14.00
2022-12-05T06:46:54.478Z,17.70
2022-12-05T06:49:31.707Z,14.33
2022-12-05T06:52:04.695Z,14.77
2022-12-05T06:54:35.841Z,16.83
2022-12-05T06:57:06.696Z,14.17
2022-12-05T06:59:37.573Z,15.77
2022-12-05T07:02:11.286Z,20.43
2022-12-05T07:04:42.252Z,23.13
2022-12-05T07:07:13.601Z,14.53
2022-12-05T07:09:51.353Z,13.73
2022-12-05T07:12:22.293Z,17.03
2022-12-05T07:14:53.223Z,17.63
2022-12-05T07:17:24.201Z,15.03
2022-12-05T07:19:55.323Z,17.13
2022-12-05T07:22:26.701Z,17.20
2022-12-05T07:24:57.690Z,13.07
2022-12-05T07:27:28.732Z,15.57
2022-12-05T07:29:59.885Z,17.77
2022-12-05T07:32:34.654Z,19.13
2022-12-05T07:35:05.969Z,16.83
2022-12-05T07:37:37.249Z,13.83
2022-12-05T07:40:09.086Z,18.00
2022-12-05T07:42:39.944Z,14.63
2022-12-05T07:45:11.139Z,18.90
2022-12-05T07:47:42.138Z,15.33
2022-12-05T07:50:13.981Z,16.10
2022-12-05T07:52:44.831Z,17.20
2022-12-05T07:55:15.760Z,17.87
2022-12-05T07:57:46.633Z,15.10
2022-12-05T08:00:18.554Z,16.60
2022-12-05T08:02:49.457Z,18.23
2022-12-05T08:05:20.383Z,17.37
2022-12-05T08:07:51.294Z,17.30
2022-12-05T08:10:22.203Z,20.97
2022-12-05T08:12:55.765Z,15.03
2022-12-05T08:15:26.679Z,14.77
2022-12-05T08:17:57.631Z,14.93
2022-12-05T08:20:28.579Z,13.47
2022-12-05T08:22:59.528Z,13.67
2022-12-05T08:25:30.672Z,15.47
2022-12-05T08:28:01.609Z,13.03
2022-12-05T08:30:34.151Z,19.27
2022-12-05T08:33:05.117Z,14.30
2022-12-05T08:35:37.796Z,19.50
2022-12-05T08:38:08.673Z,11.40
2022-12-05T08:40:39.581Z,14.93
2022-12-05T08:43:10.453Z,17.17
2022-12-05T08:45:41.359Z,14.37
2022-12-05T08:48:12.324Z,13.57
2022-12-05T08:50:43.200Z,16.93
2022-12-05T08:53:14.092Z,15.53
2022-12-05T08:55:48.135Z,14.20
2022-12-05T08:58:19.045Z,13.07
2022-12-05T09:00:49.931Z,17.47
2022-12-05T09:03:20.826Z,15.03
2022-12-05T09:05:54.804Z,12.53
2022-12-05T09:08:25.938Z,18.67
2022-12-05T09:10:56.838Z,12.97
2022-12-05T09:13:27.709Z,15.23
2022-12-05T09:15:58.701Z,15.50
2022-12-05T09:18:29.616Z,14.37
2022-12-05T09:21:13.803Z,10.37
2022-12-05T09:23:45.638Z,14.03
2022-12-05T09:26:20.662Z,14.77
2022-12-05T09:28:53.109Z,9.90
2022-12-05T09:31:27.258Z,16.07
2022-12-05T09:33:58.675Z,12.13
2022-12-05T09:36:32.072Z,16.10
2022-12-05T09:39:06.430Z,15.47
2022-12-05T09:42:21.049Z,16.50
2022-12-05T09:45:29.364Z,16.33
2022-12-05T09:48:24.483Z,13.30
2022-12-05T09:51:02.693Z,12.03
2022-12-05T09:53:38.125Z,11.40
2022-12-05T09:56:27.849Z,10.27
2022-12-05T09:59:02.540Z,14.97
2022-12-05T10:01:59.004Z,13.40
2022-12-05T10:04:51.662Z,11.70
2022-12-05T10:07:44.204Z,11.07
2022-12-05T10:10:44.433Z,14.40
2022-12-05T10:13:45.280Z,12.47
2022-12-05T10:16:46.098Z,10.30
2022-12-05T10:19:26.009Z,12.90
2022-12-05T10:22:18.899Z,10.03
2022-12-05T10:25:04.078Z,10.70
2022-12-05T10:27:41.100Z,13.40
2022-12-05T10:30:24.765Z,12.23
2022-12-05T10:33:09.727Z,13.10
2022-12-05T10:35:45.003Z,12.53
2022-12-05T10:38:43.689Z,10.30
2022-12-05T10:41:15.470Z,11.80
2022-12-05T10:43:46.781Z,9.67
2022-12-05T10:46:18.429Z,12.50
2022-12-05T10:48:49.363Z,15.40
2022-12-05T10:51:30.089Z,11.57
2022-12-05T10:54:13.919Z,14.03
2022-12-05T10:56:49.565Z,12.83
2022-12-05T10:59:26.784Z,15.60
2022-12-05T11:01:59.761Z,11.23
2022-12-05T11:04:43.491Z,12.33
2022-12-05T11:07:48.480Z,14.20
2022-12-05T11:10:35.203Z,11.00
2022-12-05T11:13:25.125Z,16.80
2022-12-05T11:15:56.092Z,21.90
2022-12-05T11:18:31.798Z,15.87
2022-12-05T11:21:14.648Z,14.77
2022-12-05T11:23:46.414Z,10.80
2022-12-05T11:26:36.960Z,12.83
2022-12-05T11:29:32.573Z,14.50
2022-12-05T11:32:08.764Z,14.20
2022-12-05T11:34:54.407Z,17.03
2022-12-05T11:37:32.527Z,13.23
2022-12-05T11:40:18.112Z,13.27
2022-12-05T11:43:18.225Z,11.90
2022-12-05T11:46:14.331Z,15.00
2022-12-05T11:49:09.437Z,15.37
2022-12-05T11:51:56.005Z,13.57
2022-12-05T11:55:07.432Z,13.50
2022-12-05T11:58:00.779Z,11.63
2022-12-05T12:01:00.445Z,14.70
2022-12-05T12:03:55.534Z,12.17
2022-12-05T12:06:34.057Z,16.33
2022-12-05T12:09:29.895Z,13.13
2022-12-05T12:12:36.779Z,11.80
2022-12-05T12:15:44.805Z,12.17
2022-12-05T12:18:53.063Z,15.10
2022-12-05T12:21:41.814Z,12.03
2022-12-05T12:24:52.495Z,11.63
2022-12-05T12:28:02.946Z,15.07
2022-12-05T12:31:08.932Z,11.40
2022-12-05T12:33:54.801Z,11.63
2022-12-05T12:36:49.522Z,14.17
2022-12-05T12:39:50.771Z,14.27
2022-12-05T12:42:39.262Z,14.53
2022-12-05T12:46:11.192Z,13.03
2022-12-05T12:49:10.318Z,18.20
2022-12-05T12:51:52.975Z,16.20
2022-12-05T12:55:03.443Z,15.97
2022-12-05T12:58:11.515Z,14.40
2022-12-05T13:01:05.297Z,15.07
2022-12-05T13:03:51.594Z,16.37
2022-12-05T13:06:39.225Z,10.60
2022-12-05T13:09:20.884Z,12.77
2022-12-05T13:11:54.314Z,18.50
2022-12-05T13:14:27.629Z,20.57
2022-12-05T13:17:00.942Z,13.27
2022-12-05T13:19:46.835Z,14.43
2022-12-05T13:22:21.272Z,15.90
2022-12-05T13:24:53.686Z,17.23
2022-12-05T13:27:28.098Z,14.00
2022-12-05T13:30:10.820Z,14.13
2022-12-05T13:32:44.556Z,12.80
2022-12-05T13:35:52.141Z,13.27
2022-12-05T13:38:59.518Z,14.40
2022-12-05T13:42:04.908Z,13.37
2022-12-05T13:44:44.856Z,13.20
2022-12-05T13:47:46.255Z,17.77
2022-12-05T13:50:31.614Z,17.17
2022-12-05T13:53:19.756Z,14.10
2022-12-05T13:56:14.882Z,15.27
2022-12-05T13:58:50.096Z,19.87
2022-12-05T14:01:27.408Z,13.77
2022-12-05T14:04:02.272Z,12.50
2022-12-05T14:06:38.160Z,13.33
2022-12-05T14:09:18.065Z,15.77
2022-12-05T14:12:10.716Z,20.50
2022-12-05T14:15:00.740Z,14.53
2022-12-05T14:17:42.668Z,20.90
2022-12-05T14:20:26.215Z,15.33
2022-12-05T14:23:21.489Z,15.40
2022-12-05T14:26:32.159Z,13.17
2022-12-05T14:29:37.836Z,13.13
2022-12-05T14:32:36.017Z,12.73
2022-12-05T14:35:51.875Z,12.10
2022-12-05T14:38:32.615Z,16.73
2022-12-05T14:41:44.759Z,17.47
2022-12-05T14:44:19.394Z,14.67
2022-12-05T14:46:50.610Z,14.50
2022-12-05T14:50:01.907Z,10.47
2022-12-05T14:52:34.788Z,14.50
2022-12-05T14:55:16.300Z,11.53
2022-12-05T14:57:49.694Z,14.90
2022-12-05T15:00:23.252Z,10.60
2022-12-05T15:02:55.764Z,14.93
2022-12-05T15:05:32.153Z,12.30
2022-12-05T15:08:04.892Z,11.37
2022-12-05T15:10:38.891Z,15.37
2022-12-05T15:13:20.557Z,13.90
2022-12-05T15:16:14.852Z,10.00
2022-12-05T15:18:54.930Z,10.10
2022-12-05T15:21:33.205Z,12.90
2022-12-05T15:24:13.517Z,11.70
2022-12-05T15:26:57.443Z,12.33
2022-12-05T15:29:32.814Z,15.67
2022-12-05T15:32:18.499Z,15.10
2022-12-05T15:35:08.973Z,12.50
2022-12-05T15:37:55.533Z,17.87
2022-12-05T15:40:27.923Z,16.80
2022-12-05T15:42:59.144Z,16.10
2022-12-05T15:45:31.933Z,14.50
2022-12-05T15:48:05.498Z,15.57
2022-12-05T15:50:49.983Z,11.70
2022-12-05T15:53:44.601Z,15.30
2022-12-05T15:56:30.175Z,16.63
2022-12-05T15:59:05.825Z,12.30
2022-12-05T16:01:57.341Z,13.47
2022-12-05T16:04:48.554Z,13.97
2022-12-05T16:07:21.483Z,14.73
2022-12-05T16:09:58.247Z,12.70
2022-12-05T16:12:40.829Z,11.97
2022-12-05T16:15:26.865Z,15.07
2022-12-05T16:18:01.531Z,12.23
2022-12-05T16:20:35.915Z,14.60
2022-12-05T16:23:30.011Z,16.47
2022-12-05T16:26:13.577Z,14.90
2022-12-05T16:29:01.318Z,14.83
2022-12-05T16:31:34.195Z,14.87
2022-12-05T16:34:07.550Z,14.43
2022-12-05T16:36:50.316Z,18.13
2022-12-05T16:39:22.686Z,14.50
2022-12-05T16:41:54.613Z,12.90
2022-12-05T16:44:28.621Z,16.90
2022-12-05T16:47:02.535Z,22.00
2022-12-05T16:49:36.408Z,16.13
2022-12-05T16:52:12.742Z,23.30
2022-12-05T16:54:48.789Z,20.27
2022-12-05T16:57:19.911Z,21.53
2022-12-05T16:59:50.897Z,31.13
2022-12-05T17:02:21.931Z,20.27
2022-12-05T17:05:03.213Z,19.40
2022-12-05T17:07:34.567Z,21.37
2022-12-05T17:10:06.917Z,23.70
2022-12-05T17:12:37.846Z,24.60
2022-12-05T17:15:18.246Z,23.23
2022-12-05T17:17:51.797Z,25.40
2022-12-05T17:20:22.786Z,17.70
2022-12-05T17:22:53.850Z,14.70
2022-12-05T17:25:36.385Z,16.47
2022-12-05T17:28:10.280Z,18.07
2022-12-05T17:30:41.340Z,22.43
2022-12-05T17:33:19.804Z,15.03
2022-12-05T17:35:52.062Z,23.33
2022-12-05T17:38:23.282Z,20.83
2022-12-05T17:40:57.100Z,23.23
2022-12-05T17:43:27.971Z,19.23
2022-12-05T17:46:03.945Z,17.87
2022-12-05T17:48:34.994Z,15.23
2022-12-05T17:51:11.335Z,18.20
2022-12-05T17:53:44.551Z,20.70
2022-12-05T17:56:16.358Z,18.90
2022-12-05T17:58:47.396Z,19.50
2022-12-05T18:01:21.225Z,22.40
2022-12-05T18:03:52.214Z,20.30
2022-12-05T18:06:23.747Z,20.80
2022-12-05T18:08:54.684Z,20.83
2022-12-05T18:11:28.261Z,18.40
2022-12-05T18:14:00.034Z,16.87
2022-12-05T18:16:31.038Z,23.07
2022-12-05T18:19:02.017Z,20.33
2022-12-05T18:21:32.932Z,18.40
2022-12-05T18:24:04.145Z,19.20
2022-12-05T18:26:35.080Z,22.03
2022-12-05T18:29:06.028Z,20.30
2022-12-05T18:31:38.475Z,18.77
2022-12-05T18:34:09.612Z,17.10
2022-12-05T18:36:41.122Z,22.17
2022-12-05T18:39:14.664Z,20.37
2022-12-05T18:41:45.621Z,14.93
2022-12-05T18:44:16.628Z,17.20
2022-12-05T18:46:47.595Z,22.97
2022-12-05T18:49:18.581Z,23.10
2022-12-05T18:51:50.093Z,19.07
2022-12-05T18:54:21.385Z,26.03
2022-12-05T18:56:52.909Z,19.60
2022-12-05T18:59:23.940Z,21.40
2022-12-05T19:01:55.654Z,19.53
2022-12-05T19:04:29.980Z,19.90
2022-12-05T19:07:02.033Z,23.40
2022-12-05T19:09:33.390Z,24.67
2022-12-05T19:12:04.442Z,22.77
2022-12-05T19:14:35.375Z,24.67
2022-12-05T19:17:06.327Z,21.53
2022-12-05T19:19:37.318Z,22.83
2022-12-05T19:22:08.347Z,20.60
2022-12-05T19:24:39.288Z,17.87
2022-12-05T19:27:13.327Z,21.27
2022-12-05T19:29:44.318Z,24.43
2022-12-05T19:32:15.353Z,23.60
2022-12-05T19:34:48.397Z,21.07
2022-12-05T19:37:21.648Z,23.40
2022-12-05T19:39:52.623Z,24.27
2022-12-05T19:42:26.481Z,22.47
2022-12-05T19:44:57.393Z,23.93
2022-12-05T19:47:28.276Z,21.90
2022-12-05T19:49:59.503Z,26.13
2022-12-05T19:52:30.655Z,25.03
2022-12-05T19:55:01.672Z,20.53
2022-12-05T19:57:32.638Z,28.53
2022-12-05T20:00:04.811Z,22.30
2022-12-05T20:02:40.017Z,21.67
2022-12-05T20:05:13.368Z,24.70
2022-12-05T20:07:44.329Z,27.97
2022-12-05T20:10:15.502Z,22.67
2022-12-05T20:13:24.244Z,26.50
2022-12-05T20:16:07.562Z,26.57
2022-12-05T20:18:40.655Z,27.63
2022-12-05T20:21:18.563Z,25.37
2022-12-05T20:23:51.706Z,24.03
2022-12-05T20:26:27.276Z,32.33
2022-12-05T20:29:00.484Z,25.63
2022-12-05T20:31:42.631Z,21.33
2022-12-05T20:34:15.528Z,22.67
2022-12-05T20:36:46.533Z,21.27
2022-12-05T20:39:17.952Z,25.00
2022-12-05T20:41:52.258Z,22.07
2022-12-05T20:44:23.194Z,26.67
2022-12-05T20:46:54.487Z,17.47
2022-12-05T20:49:25.366Z,21.17
2022-12-05T20:51:56.788Z,32.63
2022-12-05T20:54:27.862Z,20.50
2022-12-05T20:56:58.895Z,21.00
2022-12-05T20:59:30.083Z,24.23
2022-12-05T21:02:01.195Z,26.27
2022-12-05T21:04:32.630Z,28.63
2022-12-05T21:07:03.559Z,33.87
2022-12-05T21:09:35.910Z,33.20
2022-12-05T21:12:06.861Z,29.67
2022-12-05T21:14:37.733Z,23.50
2022-12-05T21:17:08.694Z,26.50
2022-12-05T21:19:39.614Z,32.50
2022-12-05T21:22:10.500Z,32.87
2022-12-05T21:24:41.805Z,30.10
2022-12-05T21:27:14.896Z,32.70
2022-12-05T21:29:45.819Z,28.43
2022-12-05T21:32:16.755Z,30.80
2022-12-05T21:34:47.646Z,27.70
2022-12-05T21:37:18.532Z,26.73
2022-12-05T21:39:49.400Z,31.47
2022-12-05T21:42:20.323Z,27.50
2022-12-05T21:44:51.198Z,24.03
2022-12-05T21:47:22.246Z,22.27
2022-12-05T21:49:54.588Z,23.67
2022-12-05T21:52:25.457Z,31.50
2022-12-05T21:54:56.387Z,25.20
2022-12-05T21:57:32.565Z,24.07
2022-12-05T22:00:04.032Z,19.27
2022-12-05T22:02:35.410Z,20.33
2022-12-05T22:05:06.928Z,21.43
2022-12-05T22:07:37.827Z,22.40
2022-12-05T22:10:09.220Z,19.13
2022-12-05T22:12:40.202Z,23.00
2022-12-05T22:15:11.865Z,22.53
2022-12-05T22:17:42.903Z,21.13
2022-12-05T22:20:13.808Z,22.87
2022-12-05T22:22:44.696Z,24.47
2022-12-05T22:25:15.665Z,21.67
2022-12-05T22:27:46.520Z,18.73
2022-12-05T22:30:20.318Z,21.43
2022-12-05T22:32:53.808Z,21.10
2022-12-05T22:35:24.717Z,20.93
2022-12-05T22:37:55.588Z,20.30
2022-12-05T22:40:26.482Z,22.90
2022-12-05T22:42:57.348Z,21.40
2022-12-05T22:45:28.235Z,21.87
2022-12-05T22:47:59.162Z,21.47
2022-12-05T22:50:30.106Z,21.40
2022-12-05T22:53:03.529Z,21.73
2022-12-05T22:55:34.498Z,22.00
2022-12-05T22:58:05.365Z,18.70
2022-12-05T23:00:37.152Z,20.37
2022-12-05T23:03:08.522Z,21.30
2022-12-05T23:05:41.512Z,18.97
2022-12-05T23:08:12.811Z,23.27
2022-12-05T23:10:43.769Z,19.97
2022-12-05T23:13:14.810Z,17.40
2022-12-05T23:15:46.002Z,18.60
2022-12-05T23:18:16.956Z,19.43
2022-12-05T23:20:47.894Z,18.97
2022-12-05T23:23:18.821Z,24.97
2022-12-05T23:25:49.837Z,21.33
2022-12-05T23:28:23.745Z,18.07
2022-12-05T23:30:54.746Z,17.77
2022-12-05T23:33:26.564Z,19.43
2022-12-05T23:36:00.759Z,21.50
2022-12-05T23:38:31.707Z,20.63
2022-12-05T23:41:05.872Z,23.20
2022-12-05T23:43:37.417Z,22.50
2022-12-05T23:46:09.352Z,19.63
2022-12-05T23:48:40.858Z,19.87
2022-12-05T23:51:24.550Z,22.27
2022-12-05T23:53:58.874Z,16.17
2022-12-05T23:56:32.634Z,19.00
2022-12-05T23:59:06.120Z,18.20
